sensor_id;sensor_type;location;lat;lon;timestamp;P1;durP1;ratioP1;P2;durP2;ratioP2
7485;SDS011;3784;54.098;9.998;2022-07-18T00:00:07;4.67;;;3.00;;
7485;SDS011;3784;54.098;9.998;2022-07-18T00:02:34;5.10;;;3.13;;
7485;SDS011;3784;54.098;9.998;2022-07-18T00:05:01;2.77;;;2.57;;
7485;SDS011;3784;54.098;9.998;2022-07-18T00:07:28;2.60;;;2.30;;
7485;SDS011;3784;54.098;9.998;2022-07-18T00:09:54;3.17;;;2.40;;
7485;SDS011;3784;54.098;9.998;2022-07-18T00:12:21;3.60;;;2.63;;
7485;SDS011;3784;54.098;9.998;2022-07-18T00:14:48;4.07;;;2.80;;
7485;SDS011;3784;54.098;9.998;2022-07-18T00:17:15;3.23;;;2.93;;
7485;SDS011;3784;54.098;9.998;2022-07-18T00:19:41;3.40;;;2.70;;
7485;SDS011;3784;54.098;9.998;2022-07-18T00:22:08;4.80;;;2.47;;
7485;SDS011;3784;54.098;9.998;2022-07-18T00:24:34;3.47;;;2.40;;
7485;SDS011;3784;54.098;9.998;2022-07-18T00:27:03;4.63;;;2.67;;
7485;SDS011;3784;54.098;9.998;2022-07-18T00:29:31;4.10;;;2.70;;
7485;SDS011;3784;54.098;9.998;2022-07-18T00:31:58;2.87;;;2.43;;
7485;SDS011;3784;54.098;9.998;2022-07-18T00:34:24;3.40;;;2.60;;
7485;SDS011;3784;54.098;9.998;2022-07-18T00:36:51;3.93;;;3.00;;
7485;SDS011;3784;54.098;9.998;2022-07-18T00:39:17;4.80;;;2.50;;
7485;SDS011;3784;54.098;9.998;2022-07-18T00:41:45;4.03;;;3.03;;
7485;SDS011;3784;54.098;9.998;2022-07-18T00:44:16;3.57;;;2.53;;
7485;SDS011;3784;54.098;9.998;2022-07-18T00:46:44;3.37;;;2.90;;
7485;SDS011;3784;54.098;9.998;2022-07-18T00:49:10;3.30;;;2.57;;
7485;SDS011;3784;54.098;9.998;2022-07-18T00:51:37;3.50;;;2.40;;
7485;SDS011;3784;54.098;9.998;2022-07-18T00:54:04;2.57;;;2.37;;
7485;SDS011;3784;54.098;9.998;2022-07-18T00:56:31;3.63;;;2.63;;
7485;SDS011;3784;54.098;9.998;2022-07-18T00:58:58;2.60;;;2.40;;
7485;SDS011;3784;54.098;9.998;2022-07-18T01:01:25;3.93;;;2.40;;
7485;SDS011;3784;54.098;9.998;2022-07-18T01:04:10;3.50;;;2.47;;
7485;SDS011;3784;54.098;9.998;2022-07-18T01:06:41;2.93;;;2.20;;
7485;SDS011;3784;54.098;9.998;2022-07-18T01:09:08;5.10;;;2.47;;
7485;SDS011;3784;54.098;9.998;2022-07-18T01:11:34;2.83;;;2.30;;
7485;SDS011;3784;54.098;9.998;2022-07-18T01:14:02;3.67;;;2.63;;
7485;SDS011;3784;54.098;9.998;2022-07-18T01:16:30;2.53;;;2.33;;
7485;SDS011;3784;54.098;9.998;2022-07-18T01:18:57;2.63;;;2.30;;
7485;SDS011;3784;54.098;9.998;2022-07-18T01:21:23;3.37;;;2.40;;
7485;SDS011;3784;54.098;9.998;2022-07-18T01:23:50;3.40;;;2.30;;
7485;SDS011;3784;54.098;9.998;2022-07-18T01:26:17;3.70;;;2.30;;
7485;SDS011;3784;54.098;9.998;2022-07-18T01:28:45;3.03;;;2.60;;
7485;SDS011;3784;54.098;9.998;2022-07-18T01:31:12;2.97;;;2.40;;
7485;SDS011;3784;54.098;9.998;2022-07-18T01:33:39;2.50;;;2.27;;
7485;SDS011;3784;54.098;9.998;2022-07-18T01:36:06;3.87;;;2.77;;
7485;SDS011;3784;54.098;9.998;2022-07-18T01:38:33;2.90;;;2.60;;
7485;SDS011;3784;54.098;9.998;2022-07-18T01:41:00;2.93;;;2.70;;
7485;SDS011;3784;54.098;9.998;2022-07-18T01:43:27;3.00;;;2.63;;
7485;SDS011;3784;54.098;9.998;2022-07-18T01:45:54;4.57;;;2.73;;
7485;SDS011;3784;54.098;9.998;2022-07-18T01:48:21;3.50;;;2.40;;
7485;SDS011;3784;54.098;9.998;2022-07-18T01:50:49;3.10;;;2.43;;
7485;SDS011;3784;54.098;9.998;2022-07-18T01:53:17;2.83;;;2.47;;
7485;SDS011;3784;54.098;9.998;2022-07-18T01:55:43;3.43;;;2.63;;
7485;SDS011;3784;54.098;9.998;2022-07-18T01:58:10;3.37;;;2.80;;
7485;SDS011;3784;54.098;9.998;2022-07-18T02:00:37;2.50;;;2.30;;
7485;SDS011;3784;54.098;9.998;2022-07-18T02:03:03;2.90;;;2.60;;
7485;SDS011;3784;54.098;9.998;2022-07-18T02:05:30;3.37;;;2.47;;
7485;SDS011;3784;54.098;9.998;2022-07-18T02:07:56;4.20;;;2.53;;
7485;SDS011;3784;54.098;9.998;2022-07-18T02:10:23;3.40;;;2.47;;
7485;SDS011;3784;54.098;9.998;2022-07-18T02:12:50;3.93;;;2.73;;
7485;SDS011;3784;54.098;9.998;2022-07-18T02:15:16;3.50;;;2.80;;
7485;SDS011;3784;54.098;9.998;2022-07-18T02:17:43;3.70;;;2.80;;
7485;SDS011;3784;54.098;9.998;2022-07-18T02:20:10;2.53;;;2.33;;
7485;SDS011;3784;54.098;9.998;2022-07-18T02:22:38;2.70;;;2.50;;
7485;SDS011;3784;54.098;9.998;2022-07-18T02:25:04;3.57;;;2.70;;
7485;SDS011;3784;54.098;9.998;2022-07-18T02:27:32;3.13;;;2.40;;
7485;SDS011;3784;54.098;9.998;2022-07-18T02:29:58;5.10;;;3.10;;
7485;SDS011;3784;54.098;9.998;2022-07-18T02:32:25;4.53;;;2.73;;
7485;SDS011;3784;54.098;9.998;2022-07-18T02:34:51;2.73;;;2.47;;
7485;SDS011;3784;54.098;9.998;2022-07-18T02:37:18;3.03;;;2.50;;
7485;SDS011;3784;54.098;9.998;2022-07-18T02:39:44;2.90;;;2.53;;
7485;SDS011;3784;54.098;9.998;2022-07-18T02:42:11;3.13;;;2.40;;
7485;SDS011;3784;54.098;9.998;2022-07-18T02:44:37;3.73;;;2.73;;
7485;SDS011;3784;54.098;9.998;2022-07-18T02:47:04;4.27;;;2.73;;
7485;SDS011;3784;54.098;9.998;2022-07-18T02:49:30;5.03;;;2.67;;
7485;SDS011;3784;54.098;9.998;2022-07-18T02:52:03;3.80;;;2.50;;
7485;SDS011;3784;54.098;9.998;2022-07-18T02:54:31;3.33;;;2.90;;
7485;SDS011;3784;54.098;9.998;2022-07-18T02:56:59;4.73;;;3.20;;
7485;SDS011;3784;54.098;9.998;2022-07-18T02:59:26;5.23;;;3.20;;
7485;SDS011;3784;54.098;9.998;2022-07-18T03:01:54;3.37;;;3.00;;
7485;SDS011;3784;54.098;9.998;2022-07-18T03:04:21;3.27;;;2.93;;
7485;SDS011;3784;54.098;9.998;2022-07-18T03:06:48;3.50;;;3.20;;
7485;SDS011;3784;54.098;9.998;2022-07-18T03:09:15;3.53;;;2.70;;
7485;SDS011;3784;54.098;9.998;2022-07-18T03:11:42;3.13;;;2.80;;
7485;SDS011;3784;54.098;9.998;2022-07-18T03:14:09;4.30;;;2.90;;
7485;SDS011;3784;54.098;9.998;2022-07-18T03:16:35;4.00;;;2.93;;
7485;SDS011;3784;54.098;9.998;2022-07-18T03:19:02;3.43;;;2.80;;
7485;SDS011;3784;54.098;9.998;2022-07-18T03:21:29;3.47;;;3.17;;
7485;SDS011;3784;54.098;9.998;2022-07-18T03:23:56;3.10;;;2.80;;
7485;SDS011;3784;54.098;9.998;2022-07-18T03:26:23;2.90;;;2.60;;
7485;SDS011;3784;54.098;9.998;2022-07-18T03:28:49;4.33;;;3.17;;
7485;SDS011;3784;54.098;9.998;2022-07-18T03:31:16;3.20;;;2.90;;
7485;SDS011;3784;54.098;9.998;2022-07-18T03:33:43;4.53;;;3.00;;
7485;SDS011;3784;54.098;9.998;2022-07-18T03:36:10;3.60;;;2.73;;
7485;SDS011;3784;54.098;9.998;2022-07-18T03:38:36;5.57;;;3.00;;
7485;SDS011;3784;54.098;9.998;2022-07-18T03:41:03;3.43;;;3.10;;
7485;SDS011;3784;54.098;9.998;2022-07-18T03:43:30;3.83;;;2.90;;
7485;SDS011;3784;54.098;9.998;2022-07-18T03:45:57;4.07;;;3.20;;
7485;SDS011;3784;54.098;9.998;2022-07-18T03:48:24;4.40;;;2.70;;
7485;SDS011;3784;54.098;9.998;2022-07-18T03:50:50;4.03;;;2.87;;
7485;SDS011;3784;54.098;9.998;2022-07-18T03:53:17;5.60;;;3.10;;
7485;SDS011;3784;54.098;9.998;2022-07-18T03:55:43;3.93;;;2.87;;
7485;SDS011;3784;54.098;9.998;2022-07-18T03:58:10;3.73;;;3.00;;
7485;SDS011;3784;54.098;9.998;2022-07-18T04:00:37;4.27;;;2.73;;
7485;SDS011;3784;54.098;9.998;2022-07-18T04:03:04;3.40;;;2.80;;
7485;SDS011;3784;54.098;9.998;2022-07-18T04:05:31;4.77;;;2.93;;
7485;SDS011;3784;54.098;9.998;2022-07-18T04:07:57;3.30;;;2.70;;
7485;SDS011;3784;54.098;9.998;2022-07-18T04:10:24;4.70;;;2.90;;
7485;SDS011;3784;54.098;9.998;2022-07-18T04:12:51;3.20;;;2.90;;
7485;SDS011;3784;54.098;9.998;2022-07-18T04:15:20;4.63;;;3.17;;
7485;SDS011;3784;54.098;9.998;2022-07-18T04:17:48;4.87;;;2.97;;
7485;SDS011;3784;54.098;9.998;2022-07-18T04:20:16;4.30;;;2.93;;
7485;SDS011;3784;54.098;9.998;2022-07-18T04:22:44;3.47;;;3.17;;
7485;SDS011;3784;54.098;9.998;2022-07-18T04:25:18;3.40;;;3.00;;
7485;SDS011;3784;54.098;9.998;2022-07-18T04:27:46;3.67;;;3.00;;
7485;SDS011;3784;54.098;9.998;2022-07-18T04:30:14;3.77;;;3.10;;
7485;SDS011;3784;54.098;9.998;2022-07-18T04:32:42;5.37;;;2.90;;
7485;SDS011;3784;54.098;9.998;2022-07-18T04:35:11;5.07;;;2.73;;
7485;SDS011;3784;54.098;9.998;2022-07-18T04:37:38;2.97;;;2.77;;
7485;SDS011;3784;54.098;9.998;2022-07-18T04:40:06;3.83;;;3.07;;
7485;SDS011;3784;54.098;9.998;2022-07-18T04:42:33;3.67;;;3.07;;
7485;SDS011;3784;54.098;9.998;2022-07-18T04:45:00;3.40;;;3.07;;
7485;SDS011;3784;54.098;9.998;2022-07-18T04:47:27;3.20;;;2.90;;
7485;SDS011;3784;54.098;9.998;2022-07-18T04:49:55;4.90;;;3.00;;
7485;SDS011;3784;54.098;9.998;2022-07-18T04:52:21;3.60;;;2.80;;
7485;SDS011;3784;54.098;9.998;2022-07-18T04:54:48;3.07;;;2.83;;
7485;SDS011;3784;54.098;9.998;2022-07-18T04:57:15;5.50;;;3.20;;
7485;SDS011;3784;54.098;9.998;2022-07-18T04:59:41;5.63;;;3.20;;
7485;SDS011;3784;54.098;9.998;2022-07-18T05:02:08;4.10;;;2.80;;
7485;SDS011;3784;54.098;9.998;2022-07-18T05:04:36;3.63;;;2.97;;
7485;SDS011;3784;54.098;9.998;2022-07-18T05:07:03;3.33;;;2.80;;
7485;SDS011;3784;54.098;9.998;2022-07-18T05:09:30;6.03;;;2.90;;
7485;SDS011;3784;54.098;9.998;2022-07-18T05:11:57;5.03;;;3.23;;
7485;SDS011;3784;54.098;9.998;2022-07-18T05:14:24;4.50;;;3.07;;
7485;SDS011;3784;54.098;9.998;2022-07-18T05:16:50;4.37;;;3.13;;
7485;SDS011;3784;54.098;9.998;2022-07-18T05:19:17;5.37;;;3.27;;
7485;SDS011;3784;54.098;9.998;2022-07-18T05:21:43;4.60;;;2.60;;
7485;SDS011;3784;54.098;9.998;2022-07-18T05:24:10;4.50;;;3.20;;
7485;SDS011;3784;54.098;9.998;2022-07-18T05:26:37;7.60;;;3.50;;
7485;SDS011;3784;54.098;9.998;2022-07-18T05:29:04;4.33;;;2.93;;
7485;SDS011;3784;54.098;9.998;2022-07-18T05:31:32;3.40;;;3.10;;
7485;SDS011;3784;54.098;9.998;2022-07-18T05:33:59;4.23;;;2.83;;
7485;SDS011;3784;54.098;9.998;2022-07-18T05:36:25;4.47;;;3.23;;
7485;SDS011;3784;54.098;9.998;2022-07-18T05:38:52;4.90;;;3.20;;
7485;SDS011;3784;54.098;9.998;2022-07-18T05:41:18;3.53;;;2.70;;
7485;SDS011;3784;54.098;9.998;2022-07-18T05:43:45;3.83;;;3.20;;
7485;SDS011;3784;54.098;9.998;2022-07-18T05:46:11;6.47;;;3.10;;
7485;SDS011;3784;54.098;9.998;2022-07-18T05:48:43;4.37;;;3.60;;
7485;SDS011;3784;54.098;9.998;2022-07-18T05:51:09;4.80;;;2.90;;
7485;SDS011;3784;54.098;9.998;2022-07-18T05:53:37;5.13;;;3.33;;
7485;SDS011;3784;54.098;9.998;2022-07-18T05:56:03;5.03;;;3.43;;
7485;SDS011;3784;54.098;9.998;2022-07-18T05:58:30;5.87;;;3.40;;
7485;SDS011;3784;54.098;9.998;2022-07-18T06:00:57;6.83;;;4.00;;
7485;SDS011;3784;54.098;9.998;2022-07-18T06:03:24;4.67;;;3.67;;
7485;SDS011;3784;54.098;9.998;2022-07-18T06:05:50;5.33;;;3.33;;
7485;SDS011;3784;54.098;9.998;2022-07-18T06:08:25;4.23;;;3.70;;
7485;SDS011;3784;54.098;9.998;2022-07-18T06:10:51;6.10;;;3.83;;
7485;SDS011;3784;54.098;9.998;2022-07-18T06:13:18;4.43;;;3.60;;
7485;SDS011;3784;54.098;9.998;2022-07-18T06:15:44;5.17;;;3.60;;
7485;SDS011;3784;54.098;9.998;2022-07-18T06:18:11;5.30;;;3.97;;
7485;SDS011;3784;54.098;9.998;2022-07-18T06:20:38;7.83;;;3.90;;
7485;SDS011;3784;54.098;9.998;2022-07-18T06:23:04;5.43;;;4.07;;
7485;SDS011;3784;54.098;9.998;2022-07-18T06:25:31;4.87;;;4.37;;
7485;SDS011;3784;54.098;9.998;2022-07-18T06:27:58;3.90;;;3.40;;
7485;SDS011;3784;54.098;9.998;2022-07-18T06:30:24;6.57;;;4.20;;
7485;SDS011;3784;54.098;9.998;2022-07-18T06:32:51;5.70;;;4.00;;
7485;SDS011;3784;54.098;9.998;2022-07-18T06:35:18;4.80;;;4.07;;
7485;SDS011;3784;54.098;9.998;2022-07-18T06:37:44;7.10;;;4.03;;
7485;SDS011;3784;54.098;9.998;2022-07-18T06:40:11;4.80;;;4.30;;
7485;SDS011;3784;54.098;9.998;2022-07-18T06:42:38;5.80;;;3.70;;
7485;SDS011;3784;54.098;9.998;2022-07-18T06:45:05;4.57;;;3.40;;
7485;SDS011;3784;54.098;9.998;2022-07-18T06:47:38;5.10;;;3.77;;
7485;SDS011;3784;54.098;9.998;2022-07-18T06:50:05;5.17;;;4.07;;
7485;SDS011;3784;54.098;9.998;2022-07-18T06:52:32;5.33;;;4.10;;
7485;SDS011;3784;54.098;9.998;2022-07-18T06:54:58;8.90;;;4.50;;
7485;SDS011;3784;54.098;9.998;2022-07-18T06:57:27;5.60;;;3.90;;
7485;SDS011;3784;54.098;9.998;2022-07-18T06:59:53;5.00;;;4.07;;
7485;SDS011;3784;54.098;9.998;2022-07-18T07:02:24;4.27;;;3.83;;
7485;SDS011;3784;54.098;9.998;2022-07-18T07:04:51;4.27;;;3.73;;
7485;SDS011;3784;54.098;9.998;2022-07-18T07:07:17;5.50;;;4.23;;
7485;SDS011;3784;54.098;9.998;2022-07-18T07:09:44;5.67;;;3.60;;
7485;SDS011;3784;54.098;9.998;2022-07-18T07:12:11;5.77;;;4.17;;
7485;SDS011;3784;54.098;9.998;2022-07-18T07:14:38;4.83;;;3.93;;
7485;SDS011;3784;54.098;9.998;2022-07-18T07:17:04;4.37;;;3.90;;
7485;SDS011;3784;54.098;9.998;2022-07-18T07:19:31;4.33;;;3.50;;
7485;SDS011;3784;54.098;9.998;2022-07-18T07:21:58;4.53;;;4.00;;
7485;SDS011;3784;54.098;9.998;2022-07-18T07:24:25;4.40;;;3.97;;
7485;SDS011;3784;54.098;9.998;2022-07-18T07:26:51;5.70;;;4.37;;
7485;SDS011;3784;54.098;9.998;2022-07-18T07:29:21;5.97;;;3.87;;
7485;SDS011;3784;54.098;9.998;2022-07-18T07:31:48;5.43;;;4.20;;
7485;SDS011;3784;54.098;9.998;2022-07-18T07:34:17;4.30;;;3.90;;
7485;SDS011;3784;54.098;9.998;2022-07-18T07:36:43;4.90;;;3.63;;
7485;SDS011;3784;54.098;9.998;2022-07-18T07:39:10;5.50;;;4.20;;
7485;SDS011;3784;54.098;9.998;2022-07-18T07:41:36;5.63;;;4.03;;
7485;SDS011;3784;54.098;9.998;2022-07-18T07:44:03;4.27;;;3.87;;
7485;SDS011;3784;54.098;9.998;2022-07-18T07:46:30;6.63;;;4.00;;
7485;SDS011;3784;54.098;9.998;2022-07-18T07:48:57;4.80;;;4.10;;
7485;SDS011;3784;54.098;9.998;2022-07-18T07:51:23;6.37;;;4.27;;
7485;SDS011;3784;54.098;9.998;2022-07-18T07:53:52;5.60;;;4.07;;
7485;SDS011;3784;54.098;9.998;2022-07-18T07:56:19;3.93;;;3.63;;
7485;SDS011;3784;54.098;9.998;2022-07-18T07:58:46;6.63;;;4.40;;
7485;SDS011;3784;54.098;9.998;2022-07-18T08:01:12;6.37;;;4.20;;
7485;SDS011;3784;54.098;9.998;2022-07-18T08:03:41;4.90;;;4.30;;
7485;SDS011;3784;54.098;9.998;2022-07-18T08:06:07;7.37;;;4.53;;
7485;SDS011;3784;54.098;9.998;2022-07-18T08:08:34;4.90;;;4.00;;
7485;SDS011;3784;54.098;9.998;2022-07-18T08:11:01;7.13;;;4.50;;
7485;SDS011;3784;54.098;9.998;2022-07-18T08:13:27;7.27;;;4.50;;
7485;SDS011;3784;54.098;9.998;2022-07-18T08:15:54;5.43;;;4.47;;
7485;SDS011;3784;54.098;9.998;2022-07-18T08:18:21;4.80;;;4.40;;
7485;SDS011;3784;54.098;9.998;2022-07-18T08:20:47;5.70;;;4.50;;
7485;SDS011;3784;54.098;9.998;2022-07-18T08:23:14;8.40;;;4.73;;
7485;SDS011;3784;54.098;9.998;2022-07-18T08:25:43;5.10;;;4.67;;
7485;SDS011;3784;54.098;9.998;2022-07-18T08:28:11;5.23;;;4.60;;
7485;SDS011;3784;54.098;9.998;2022-07-18T08:30:38;5.33;;;4.50;;
7485;SDS011;3784;54.098;9.998;2022-07-18T08:33:06;6.77;;;5.20;;
7485;SDS011;3784;54.098;9.998;2022-07-18T08:35:33;5.50;;;4.83;;
7485;SDS011;3784;54.098;9.998;2022-07-18T08:38:00;5.70;;;4.97;;
7485;SDS011;3784;54.098;9.998;2022-07-18T08:40:28;5.47;;;4.97;;
7485;SDS011;3784;54.098;9.998;2022-07-18T08:42:56;6.10;;;5.50;;
7485;SDS011;3784;54.098;9.998;2022-07-18T08:45:46;5.83;;;5.30;;
7485;SDS011;3784;54.098;9.998;2022-07-18T08:48:17;5.90;;;5.13;;
7485;SDS011;3784;54.098;9.998;2022-07-18T08:50:47;5.60;;;5.10;;
7485;SDS011;3784;54.098;9.998;2022-07-18T08:53:17;6.30;;;5.60;;
7485;SDS011;3784;54.098;9.998;2022-07-18T08:55:45;6.83;;;5.23;;
7485;SDS011;3784;54.098;9.998;2022-07-18T08:58:12;5.90;;;5.30;;
7485;SDS011;3784;54.098;9.998;2022-07-18T09:01:01;6.53;;;5.37;;
7485;SDS011;3784;54.098;9.998;2022-07-18T09:03:28;5.73;;;5.00;;
7485;SDS011;3784;54.098;9.998;2022-07-18T09:06:06;8.63;;;5.23;;
7485;SDS011;3784;54.098;9.998;2022-07-18T09:08:37;6.93;;;5.10;;
7485;SDS011;3784;54.098;9.998;2022-07-18T09:11:08;9.10;;;5.13;;
7485;SDS011;3784;54.098;9.998;2022-07-18T09:13:57;6.10;;;5.50;;
7485;SDS011;3784;54.098;9.998;2022-07-18T09:16:23;6.03;;;5.37;;
7485;SDS011;3784;54.098;9.998;2022-07-18T09:18:50;7.33;;;5.73;;
7485;SDS011;3784;54.098;9.998;2022-07-18T09:21:18;5.93;;;5.43;;
7485;SDS011;3784;54.098;9.998;2022-07-18T09:23:47;7.00;;;5.50;;
7485;SDS011;3784;54.098;9.998;2022-07-18T09:29:14;5.53;;;5.03;;
7485;SDS011;3784;54.098;9.998;2022-07-18T09:32:02;6.60;;;5.17;;
7485;SDS011;3784;54.098;9.998;2022-07-18T09:34:36;8.50;;;5.73;;
7485;SDS011;3784;54.098;9.998;2022-07-18T09:37:04;5.57;;;4.97;;
7485;SDS011;3784;54.098;9.998;2022-07-18T09:39:37;8.13;;;5.33;;
7485;SDS011;3784;54.098;9.998;2022-07-18T09:42:13;6.90;;;5.00;;
7485;SDS011;3784;54.098;9.998;2022-07-18T09:44:41;5.67;;;5.00;;
7485;SDS011;3784;54.098;9.998;2022-07-18T09:47:08;5.87;;;4.83;;
7485;SDS011;3784;54.098;9.998;2022-07-18T09:49:36;6.03;;;5.20;;
7485;SDS011;3784;54.098;9.998;2022-07-18T09:52:07;7.73;;;4.80;;
7485;SDS011;3784;54.098;9.998;2022-07-18T09:54:36;6.13;;;4.93;;
7485;SDS011;3784;54.098;9.998;2022-07-18T09:57:03;5.73;;;5.00;;
7485;SDS011;3784;54.098;9.998;2022-07-18T09:59:30;5.17;;;4.50;;
7485;SDS011;3784;54.098;9.998;2022-07-18T10:01:57;6.07;;;4.87;;
7485;SDS011;3784;54.098;9.998;2022-07-18T10:04:23;4.87;;;4.37;;
7485;SDS011;3784;54.098;9.998;2022-07-18T10:06:50;7.13;;;4.97;;
7485;SDS011;3784;54.098;9.998;2022-07-18T10:09:17;5.23;;;4.20;;
7485;SDS011;3784;54.098;9.998;2022-07-18T10:11:44;4.97;;;4.57;;
7485;SDS011;3784;54.098;9.998;2022-07-18T10:14:11;5.10;;;4.60;;
7485;SDS011;3784;54.098;9.998;2022-07-18T10:16:38;6.67;;;4.77;;
7485;SDS011;3784;54.098;9.998;2022-07-18T10:19:07;5.73;;;4.73;;
7485;SDS011;3784;54.098;9.998;2022-07-18T10:21:34;5.83;;;4.97;;
7485;SDS011;3784;54.098;9.998;2022-07-18T10:24:00;8.83;;;5.50;;
7485;SDS011;3784;54.098;9.998;2022-07-18T10:26:28;5.80;;;5.20;;
7485;SDS011;3784;54.098;9.998;2022-07-18T10:36:36;5.93;;;4.67;;
7485;SDS011;3784;54.098;9.998;2022-07-18T10:39:07;6.80;;;4.60;;
7485;SDS011;3784;54.098;9.998;2022-07-18T10:52:54;6.90;;;4.60;;
7485;SDS011;3784;54.098;9.998;2022-07-18T11:03:04;5.73;;;4.97;;
7485;SDS011;3784;54.098;9.998;2022-07-18T11:16:02;5.43;;;4.93;;
7485;SDS011;3784;54.098;9.998;2022-07-18T11:19:18;5.00;;;4.60;;
7485;SDS011;3784;54.098;9.998;2022-07-18T11:23:50;6.23;;;5.17;;
7485;SDS011;3784;54.098;9.998;2022-07-18T11:26:28;5.67;;;5.07;;
7485;SDS011;3784;54.098;9.998;2022-07-18T11:28:56;5.57;;;5.00;;
7485;SDS011;3784;54.098;9.998;2022-07-18T11:31:25;5.17;;;4.67;;
7485;SDS011;3784;54.098;9.998;2022-07-18T11:33:52;5.60;;;5.10;;
7485;SDS011;3784;54.098;9.998;2022-07-18T11:36:20;5.30;;;4.80;;
7485;SDS011;3784;54.098;9.998;2022-07-18T11:38:49;5.33;;;4.83;;
7485;SDS011;3784;54.098;9.998;2022-07-18T11:41:17;5.77;;;4.73;;
7485;SDS011;3784;54.098;9.998;2022-07-18T11:43:45;5.43;;;4.43;;
7485;SDS011;3784;54.098;9.998;2022-07-18T11:46:13;5.87;;;4.70;;
7485;SDS011;3784;54.098;9.998;2022-07-18T11:48:43;5.10;;;4.60;;
7485;SDS011;3784;54.098;9.998;2022-07-18T11:51:12;5.63;;;5.03;;
7485;SDS011;3784;54.098;9.998;2022-07-18T11:53:43;5.03;;;4.60;;
7485;SDS011;3784;54.098;9.998;2022-07-18T11:56:14;5.10;;;4.60;;
7485;SDS011;3784;54.098;9.998;2022-07-18T11:58:41;5.27;;;4.87;;
7485;SDS011;3784;54.098;9.998;2022-07-18T12:01:09;6.30;;;4.80;;
7485;SDS011;3784;54.098;9.998;2022-07-18T12:03:42;5.40;;;4.77;;
7485;SDS011;3784;54.098;9.998;2022-07-18T12:06:11;6.00;;;4.73;;
7485;SDS011;3784;54.098;9.998;2022-07-18T12:08:42;6.13;;;4.67;;
7485;SDS011;3784;54.098;9.998;2022-07-18T12:14:01;5.83;;;5.00;;
7485;SDS011;3784;54.098;9.998;2022-07-18T12:21:42;6.40;;;4.43;;
7485;SDS011;3784;54.098;9.998;2022-07-18T12:24:32;7.03;;;4.63;;
7485;SDS011;3784;54.098;9.998;2022-07-18T12:27:10;5.30;;;4.60;;
7485;SDS011;3784;54.098;9.998;2022-07-18T12:32:36;4.97;;;4.40;;
7485;SDS011;3784;54.098;9.998;2022-07-18T12:35:05;5.70;;;4.67;;
7485;SDS011;3784;54.098;9.998;2022-07-18T12:37:39;5.67;;;4.80;;
7485;SDS011;3784;54.098;9.998;2022-07-18T12:40:12;5.27;;;4.77;;
7485;SDS011;3784;54.098;9.998;2022-07-18T12:43:00;5.47;;;4.87;;
7485;SDS011;3784;54.098;9.998;2022-07-18T12:45:28;4.70;;;4.30;;
7485;SDS011;3784;54.098;9.998;2022-07-18T12:48:01;5.13;;;4.63;;
7485;SDS011;3784;54.098;9.998;2022-07-18T12:50:28;6.10;;;4.43;;
7485;SDS011;3784;54.098;9.998;2022-07-18T12:52:54;5.10;;;4.60;;
7485;SDS011;3784;54.098;9.998;2022-07-18T12:55:21;8.33;;;4.17;;
7485;SDS011;3784;54.098;9.998;2022-07-18T12:57:56;5.67;;;4.73;;
7485;SDS011;3784;54.098;9.998;2022-07-18T13:00:23;6.97;;;4.70;;
7485;SDS011;3784;54.098;9.998;2022-07-18T13:02:49;5.03;;;4.57;;
7485;SDS011;3784;54.098;9.998;2022-07-18T13:05:16;5.00;;;4.50;;
7485;SDS011;3784;54.098;9.998;2022-07-18T13:07:42;4.70;;;4.30;;
7485;SDS011;3784;54.098;9.998;2022-07-18T13:10:09;6.23;;;4.80;;
7485;SDS011;3784;54.098;9.998;2022-07-18T13:12:35;6.03;;;4.50;;
7485;SDS011;3784;54.098;9.998;2022-07-18T13:15:02;6.27;;;4.67;;
7485;SDS011;3784;54.098;9.998;2022-07-18T13:17:29;5.03;;;4.40;;
7485;SDS011;3784;54.098;9.998;2022-07-18T13:19:56;8.37;;;4.77;;
7485;SDS011;3784;54.098;9.998;2022-07-18T13:22:22;5.43;;;4.30;;
7485;SDS011;3784;54.098;9.998;2022-07-18T13:24:49;7.37;;;4.57;;
7485;SDS011;3784;54.098;9.998;2022-07-18T13:27:15;6.50;;;4.10;;
7485;SDS011;3784;54.098;9.998;2022-07-18T13:29:48;6.10;;;4.60;;
7485;SDS011;3784;54.098;9.998;2022-07-18T13:32:14;6.37;;;4.33;;
7485;SDS011;3784;54.098;9.998;2022-07-18T13:34:41;6.50;;;4.40;;
7485;SDS011;3784;54.098;9.998;2022-07-18T13:37:07;5.07;;;4.60;;
7485;SDS011;3784;54.098;9.998;2022-07-18T13:39:34;4.83;;;4.33;;
7485;SDS011;3784;54.098;9.998;2022-07-18T13:42:01;6.37;;;4.70;;
7485;SDS011;3784;54.098;9.998;2022-07-18T13:44:29;5.53;;;4.37;;
7485;SDS011;3784;54.098;9.998;2022-07-18T13:46:55;6.23;;;4.50;;
7485;SDS011;3784;54.098;9.998;2022-07-18T13:49:22;5.93;;;4.50;;
7485;SDS011;3784;54.098;9.998;2022-07-18T13:51:48;6.33;;;4.50;;
7485;SDS011;3784;54.098;9.998;2022-07-18T13:54:15;5.23;;;4.10;;
7485;SDS011;3784;54.098;9.998;2022-07-18T13:56:43;5.57;;;4.70;;
7485;SDS011;3784;54.098;9.998;2022-07-18T13:59:11;5.83;;;5.07;;
7485;SDS011;3784;54.098;9.998;2022-07-18T14:01:37;7.80;;;4.70;;
7485;SDS011;3784;54.098;9.998;2022-07-18T14:04:05;4.97;;;4.20;;
7485;SDS011;3784;54.098;9.998;2022-07-18T14:06:31;5.07;;;4.57;;
7485;SDS011;3784;54.098;9.998;2022-07-18T14:08:58;5.07;;;4.57;;
7485;SDS011;3784;54.098;9.998;2022-07-18T14:11:24;5.70;;;5.10;;
7485;SDS011;3784;54.098;9.998;2022-07-18T14:13:51;4.73;;;4.27;;
7485;SDS011;3784;54.098;9.998;2022-07-18T14:16:18;5.17;;;4.67;;
7485;SDS011;3784;54.098;9.998;2022-07-18T14:18:44;6.00;;;4.73;;
7485;SDS011;3784;54.098;9.998;2022-07-18T14:21:11;5.47;;;4.97;;
7485;SDS011;3784;54.098;9.998;2022-07-18T14:23:43;5.40;;;4.60;;
7485;SDS011;3784;54.098;9.998;2022-07-18T14:26:09;6.70;;;5.17;;
7485;SDS011;3784;54.098;9.998;2022-07-18T14:28:36;4.90;;;4.40;;
7485;SDS011;3784;54.098;9.998;2022-07-18T14:31:02;5.77;;;4.80;;
7485;SDS011;3784;54.098;9.998;2022-07-18T14:33:29;4.90;;;4.50;;
7485;SDS011;3784;54.098;9.998;2022-07-18T14:35:56;6.80;;;4.40;;
7485;SDS011;3784;54.098;9.998;2022-07-18T14:38:22;5.53;;;4.33;;
7485;SDS011;3784;54.098;9.998;2022-07-18T14:40:49;8.80;;;4.63;;
7485;SDS011;3784;54.098;9.998;2022-07-18T14:43:16;7.40;;;4.90;;
7485;SDS011;3784;54.098;9.998;2022-07-18T14:45:43;4.83;;;4.33;;
7485;SDS011;3784;54.098;9.998;2022-07-18T14:48:28;5.50;;;4.83;;
7485;SDS011;3784;54.098;9.998;2022-07-18T14:50:54;6.80;;;4.47;;
7485;SDS011;3784;54.098;9.998;2022-07-18T14:53:22;5.50;;;4.63;;
7485;SDS011;3784;54.098;9.998;2022-07-18T14:55:49;5.47;;;4.97;;
7485;SDS011;3784;54.098;9.998;2022-07-18T14:58:15;5.17;;;4.53;;
7485;SDS011;3784;54.098;9.998;2022-07-18T15:00:42;6.77;;;5.10;;
7485;SDS011;3784;54.098;9.998;2022-07-18T15:03:09;5.70;;;5.20;;
7485;SDS011;3784;54.098;9.998;2022-07-18T15:05:56;6.40;;;4.70;;
7485;SDS011;3784;54.098;9.998;2022-07-18T15:08:22;6.63;;;4.93;;
7485;SDS011;3784;54.098;9.998;2022-07-18T15:10:48;6.20;;;4.90;;
7485;SDS011;3784;54.098;9.998;2022-07-18T15:13:15;5.90;;;5.30;;
7485;SDS011;3784;54.098;9.998;2022-07-18T15:15:41;6.40;;;5.07;;
7485;SDS011;3784;54.098;9.998;2022-07-18T15:18:08;5.67;;;5.17;;
7485;SDS011;3784;54.098;9.998;2022-07-18T15:20:34;6.07;;;5.47;;
7485;SDS011;3784;54.098;9.998;2022-07-18T15:23:07;5.80;;;5.20;;
7485;SDS011;3784;54.098;9.998;2022-07-18T15:25:34;5.53;;;5.03;;
7485;SDS011;3784;54.098;9.998;2022-07-18T15:28:00;6.20;;;5.40;;
7485;SDS011;3784;54.098;9.998;2022-07-18T15:30:27;6.10;;;5.50;;
7485;SDS011;3784;54.098;9.998;2022-07-18T15:33:11;5.97;;;5.37;;
7485;SDS011;3784;54.098;9.998;2022-07-18T15:35:37;7.23;;;5.40;;
7485;SDS011;3784;54.098;9.998;2022-07-18T15:38:03;6.27;;;5.67;;
7485;SDS011;3784;54.098;9.998;2022-07-18T15:40:30;6.03;;;5.50;;
7485;SDS011;3784;54.098;9.998;2022-07-18T15:42:56;6.47;;;5.87;;
7485;SDS011;3784;54.098;9.998;2022-07-18T15:45:23;6.83;;;5.77;;
7485;SDS011;3784;54.098;9.998;2022-07-18T15:47:50;7.50;;;5.50;;
7485;SDS011;3784;54.098;9.998;2022-07-18T15:50:16;7.43;;;5.70;;
7485;SDS011;3784;54.098;9.998;2022-07-18T15:52:43;7.37;;;5.83;;
7485;SDS011;3784;54.098;9.998;2022-07-18T15:55:10;7.23;;;5.60;;
7485;SDS011;3784;54.098;9.998;2022-07-18T15:57:36;6.03;;;5.50;;
7485;SDS011;3784;54.098;9.998;2022-07-18T16:00:03;6.63;;;6.03;;
7485;SDS011;3784;54.098;9.998;2022-07-18T16:02:32;7.60;;;6.50;;
7485;SDS011;3784;54.098;9.998;2022-07-18T16:04:58;6.90;;;6.30;;
7485;SDS011;3784;54.098;9.998;2022-07-18T16:07:25;6.60;;;6.00;;
7485;SDS011;3784;54.098;9.998;2022-07-18T16:09:52;6.17;;;5.67;;
7485;SDS011;3784;54.098;9.998;2022-07-18T16:12:19;6.10;;;5.60;;